Crane, Washington
Current Conditions -  °F | °C
As of 9:53 PM on Wednesday 26 Nov 2014 (Local Time) from KCLM Reporting Station
Light Rain Light Rain  
Wind Chill: 50°   Ceiling: 900
Heat Index: 50°   Visibility: 0.25mi
Dew Point: 49°   Wind: 0mph
Humidity: 96%   Direction: NA
Pressure: 29.78"   Gusts: NA
Location:  48.1359°N, 123.734°W
Report Text: KCLM 270553Z AUTO 00000KT 1/4SM -RA FG BKN009 OVC065 10/09 A2978 RMK AO2 SLP084 P0003 60004 T01000094 10128 20100 56023 $
Loading
Personal Weather Stations






























Interactive Weather Map New forecast layout! Learn more

10-Day Weather Forecast

Advertisements
Track Severe Weather on mobile